Novohrad, Texas
Current Conditions -  °F | °C
As of 11:55 AM on Tuesday 21 Oct 2014 (Local Time) from KT20 Reporting Station
Clear Clear  
Wind Chill: 78°   Ceiling: Unl
Heat Index: 79°   Visibility: 10mi
Dew Point: 58°   Wind: 8mph
Humidity: 51%   Direction: 70°ENE
Pressure: 30.07"   Gusts: NA
Location:  29.5667°N, 97.0723°W
Report Text: KT20 211655Z AUTO 07007KT 10SM CLR 26/15 A3007 RMK AO2 T02550147
Loading
Personal Weather Stations






























Interactive Weather Map
Tropical Storm Tracking
New forecast layout! Learn more

10-Day Weather Forecast

Advertisements
Track Severe Weather on mobile